Vanquish — PHCU — position and weather

sailwx.info

Track history (hours):
 
Tides and Currents Weather Stations Pressure Air Temp Water Temp Dewpoint Dewpoint Depression Visibility Wind Speed Wind Dir Waves Ship Positions

Vanquish

Last reported at 2017-Dec-16 12:45 UTC. Time now 2017-Dec-16 20:51 UTC.
Position N 53°37' E 004°51'.

MMSI: 246138952.

Date/timePositionNaut miles runAvg speedWind from/ knotsBaromVisibWave heightAir tempDewpointWater temp
2017-Dec-16 12:45N 53°37' E 004°51'310.8
2017-Dec-16 12:28N 53°34' E 004°49'510.8
2017-Dec-16 12:00N 53°30' E 004°46'610.9
2017-Dec-16 11:25N 53°24' E 004°41'1410.6
2017-Dec-16 10:06N 53°11' E 004°31'110.3
2017-Dec-16 10:00N 53°10' E 004°31'1310.5
2017-Dec-16 08:45N 52°59' E 004°20'310.4
2017-Dec-16 08:28N 52°56' E 004°18'510.6
2017-Dec-16 08:00N 52°51' E 004°15'510.7
2017-Dec-16 07:31N 52°47' E 004°11'510.9
2017-Dec-16 07:01N 52°42' E 004°06'611.1
2017-Dec-16 06:30N 52°38' E 004°01'611.4
2017-Dec-16 06:00N 52°33' E 003°56'611.3
2017-Dec-16 05:30N 52°27' E 003°54'611.6
2017-Dec-16 05:00N 52°22' E 003°52'611.9
2017-Dec-16 04:30N 52°16' E 003°52'612.6
2017-Dec-16 04:00N 52°09' E 003°54'612.8
2017-Dec-16 03:30N 52°03' E 003°55'510.0
2017-Dec-16 03:01N 52°00' E 004°01'713.1
2017-Dec-16 02:30N 51°57' E 004°10'612.6
2017-Dec-16 02:00N 51°54' E 004°19'3 7.0
2017-Dec-16 01:30N 51°51' E 004°22'5 9.4
2017-Dec-16 01:00N 51°50' E 004°30'4 8.2
2017-Dec-16 00:31N 51°48' E 004°36'4 7.8
2017-Dec-16 00:00N 51°45' E 004°38'4 7.5
2017-Dec-15 23:30N 51°41' E 004°36'1 1.1
2017-Dec-15 23:00N 51°41' E 004°36'0 0.0
2017-Dec-15 22:22N 51°41' E 004°36'0 0.0
2017-Dec-15 21:58N 51°41' E 004°36'0 0.0
2017-Dec-15 21:28N 51°41' E 004°36'0 0.0
2017-Dec-15 20:58N 51°41' E 004°36'0 0.0
2017-Dec-15 20:25N 51°41' E 004°36'0 0.0
2017-Dec-15 19:58N 51°41' E 004°36'0 0.0
2017-Dec-15 19:28N 51°41' E 004°36'0 0.0
2017-Dec-15 18:52N 51°41' E 004°36'0 0.0
2017-Dec-15 18:16N 51°41' E 004°36'0 0.0
2017-Dec-15 17:58N 51°41' E 004°36'0 0.0
2017-Dec-15 17:28N 51°41' E 004°36'0 0.0
2017-Dec-15 16:55N 51°41' E 004°36'0 0.0
2017-Dec-15 16:28N 51°41' E 004°36'0 0.0
2017-Dec-15 15:58N 51°41' E 004°36'0 0.0
2017-Dec-15 15:25N 51°41' E 004°36'0 0.0
2017-Dec-15 14:55N 51°41' E 004°36'0 0.0
2017-Dec-15 14:16N 51°41' E 004°36'0 0.0
2017-Dec-15 13:58N 51°41' E 004°36'0 0.0
2017-Dec-15 13:25N 51°41' E 004°36'0 0.0
2017-Dec-15 12:55N 51°41' E 004°36'0 0.0
2017-Dec-15 12:22N 51°41' E 004°36'0 0.0
2017-Dec-15 11:55N 51°41' E 004°36'0 0.0
2017-Dec-15 11:25N 51°41' E 004°36'0 0.0
2017-Dec-15 10:43N 51°41' E 004°36'0 0.0
2017-Dec-15 10:28N 51°41' E 004°36'0 0.1
2017-Dec-15 09:46N 51°41' E 004°36'0 0.1
2017-Dec-15 09:28N 51°41' E 004°36'0 0.0
2017-Dec-15 08:58N 51°41' E 004°36'0 0.0
2017-Dec-15 08:28N 51°41' E 004°36'0 0.0
2017-Dec-15 07:58N 51°41' E 004°36'0 0.0
2017-Dec-15 07:28N 51°41' E 004°36'0 0.0
2017-Dec-15 06:58N 51°41' E 004°36'0 0.0
2017-Dec-15 06:28N 51°41' E 004°36'0 0.0
2017-Dec-15 05:55N 51°41' E 004°36'0 0.0
2017-Dec-15 05:28N 51°41' E 004°36'0 0.0
2017-Dec-15 04:58N 51°41' E 004°36'0 0.0
2017-Dec-15 04:28N 51°41' E 004°36'0 0.0
2017-Dec-15 03:58N 51°41' E 004°36'0 0.0
2017-Dec-15 02:28N 51°41' E 004°36'0 0.0
2017-Dec-15 00:58N 51°41' E 004°36'0 0.0
2017-Dec-15 00:28N 51°41' E 004°36'0 0.0
2017-Dec-14 18:28N 51°41' E 004°36'0 0.0
2017-Dec-14 17:58N 51°41' E 004°36'0 0.0
2017-Dec-14 17:25N 51°41' E 004°36'0 0.0
2017-Dec-14 16:58N 51°41' E 004°36'0 0.0
2017-Dec-14 16:28N 51°41' E 004°36'0 0.0
2017-Dec-14 15:58N 51°41' E 004°36'0 0.2
2017-Dec-14 14:58N 51°41' E 004°36'0 0.0
2017-Dec-14 14:28N 51°41' E 004°36'0 0.0
2017-Dec-14 13:52N 51°41' E 004°36'0 0.0
2017-Dec-14 13:28N 51°41' E 004°36'0 0.0
2017-Dec-14 12:58N 51°41' E 004°36'0 0.0
2017-Dec-14 12:28N 51°41' E 004°36'0 0.0
2017-Dec-14 11:58N 51°41' E 004°36'0 0.0
2017-Dec-14 11:28N 51°41' E 004°36'0 0.0
2017-Dec-14 10:58N 51°41' E 004°36'0 0.0
2017-Dec-14 10:28N 51°41' E 004°36'0 0.0
2017-Dec-14 09:58N 51°41' E 004°36'0 0.0
2017-Dec-14 09:28N 51°41' E 004°36'0 0.0
2017-Dec-14 08:58N 51°41' E 004°36'0 0.0
2017-Dec-14 08:28N 51°41' E 004°36'0 0.0
2017-Dec-14 07:58N 51°41' E 004°36'0 0.0
2017-Dec-14 07:28N 51°41' E 004°36'0 0.0
2017-Dec-14 06:58N 51°41' E 004°36'0 0.0
2017-Dec-14 06:28N 51°41' E 004°36'0 0.0
2017-Dec-14 05:58N 51°41' E 004°36'0 0.0
2017-Dec-14 05:28N 51°41' E 004°36'0 0.0
2017-Dec-14 04:58N 51°41' E 004°36'0 0.0
2017-Dec-14 04:28N 51°41' E 004°36'0 0.0
2017-Dec-14 04:00N 51°41' E 004°36'0 0.3
2017-Dec-14 03:30N 51°41' E 004°36'3 6.5
2017-Dec-14 03:00N 51°44' E 004°38'5 9.1
2017-Dec-14 02:30N 51°48' E 004°36'5 9.2
2017-Dec-14 02:00N 51°50' E 004°29'5 9.6
2017-Dec-14 01:30N 51°51' E 004°21'3 6.6
2017-Dec-14 01:00N 51°54' E 004°18'3 5.2
2017-Dec-14 00:30N 51°55' E 004°14'4 8.5
2017-Dec-14 00:00N 51°58' E 004°09'4 7.5
2017-Dec-13 23:30N 51°59' E 004°03'3 6.7
2017-Dec-13 23:00N 51°60' E 003°58'3 6.4
2017-Dec-13 22:30N 51°59' E 003°53'2 3.8
2017-Dec-13 22:00N 52°01' E 003°51'3 5.7
2017-Dec-13 21:30N 52°02' E 003°47'3 5.7
2017-Dec-13 21:00N 52°05' E 003°47'3 5.1
2017-Dec-13 20:30N 52°08' E 003°47'2 4.3
2017-Dec-13 20:00N 52°10' E 003°47'2 4.7
2017-Dec-13 19:29N 52°12' E 003°47'2 5.0
2017-Dec-13 19:00N 52°15' E 003°47'3 4.9
2017-Dec-13 18:25N 52°18' E 003°47'1710.0
2017-Dec-13 16:42N 52°34' E 003°51'106 7.7
2017-Dec-13 02:51N 54°11' E 005°07'3 7.9
2017-Dec-13 02:30N 54°13' E 005°09'4 8.1
2017-Dec-13 02:00N 54°17' E 005°12'4 8.2
2017-Dec-13 01:30N 54°21' E 005°16'30312.3
2017-Dec-12 00:56N 58°37' E 010°07'613.6
2017-Dec-12 00:30N 58°42' E 010°13'713.6
2017-Dec-12 00:01N 58°48' E 010°21'713.4
2017-Dec-11 23:31N 58°53' E 010°28'713.6
2017-Dec-11 23:00N 58°59' E 010°35'714.1
2017-Dec-11 22:30N 59°04' E 010°45'612.7
2017-Dec-11 22:01N 59°09' E 010°39'815.9
2017-Dec-11 21:30N 59°17' E 010°36'714.8
2017-Dec-11 21:00N 59°25' E 010°38'1 2.5
2017-Dec-11 20:30N 59°26' E 010°39'0 0.0
2017-Dec-11 19:58N 59°26' E 010°39'0 0.0
2017-Dec-11 19:28N 59°26' E 010°39'0 0.0
2017-Dec-11 18:58N 59°26' E 010°39'0 0.0
2017-Dec-11 18:28N 59°26' E 010°39'0 0.0
2017-Dec-11 17:58N 59°26' E 010°39'0 0.0
2017-Dec-11 17:28N 59°26' E 010°39'0 0.0
2017-Dec-11 16:58N 59°26' E 010°39'0 0.0
2017-Dec-11 16:28N 59°26' E 010°39'0 0.0
2017-Dec-11 15:58N 59°26' E 010°39'0 0.0
2017-Dec-11 15:28N 59°26' E 010°39'0 0.0
2017-Dec-11 14:45N 59°26' E 010°39'0 0.0
2017-Dec-11 14:30N 59°26' E 010°39'0 0.0
2017-Dec-11 14:00N 59°26' E 010°39'1 1.4
2017-Dec-11 13:30N 59°25' E 010°39'4 8.3
2017-Dec-11 13:00N 59°28' E 010°33'815.0
2017-Dec-11 12:30N 59°35' E 010°38'714.1
2017-Dec-11 12:00N 59°42' E 010°35'714.5
2017-Dec-11 11:30N 59°50' E 010°35'611.9
2017-Dec-11 11:00N 59°53' E 010°45'0 0.4
2017-Dec-11 10:28N 59°53' E 010°45'0 0.0
2017-Dec-11 09:58N 59°53' E 010°45'0 0.0
2017-Dec-11 09:28N 59°53' E 010°45'0 0.0
2017-Dec-11 08:58N 59°53' E 010°45'0 0.0
2017-Dec-11 08:28N 59°53' E 010°45'0 0.0
2017-Dec-11 07:58N 59°53' E 010°45'0 0.0
2017-Dec-11 07:28N 59°53' E 010°45'0 0.0
2017-Dec-11 06:58N 59°53' E 010°45'0 0.0
2017-Dec-11 06:28N 59°53' E 010°45'0 0.0
2017-Dec-11 05:58N 59°53' E 010°45'0 0.0
2017-Dec-11 05:28N 59°53' E 010°45'0 0.0
2017-Dec-11 04:58N 59°53' E 010°45'0 0.0
2017-Dec-11 04:28N 59°53' E 010°45'0 0.0
2017-Dec-11 03:58N 59°53' E 010°45'0 0.0
2017-Dec-11 03:28N 59°53' E 010°45'0 0.0
2017-Dec-11 02:58N 59°53' E 010°45'0 0.0
2017-Dec-11 02:28N 59°53' E 010°45'0 0.0
2017-Dec-11 01:58N 59°53' E 010°45'0 0.0
2017-Dec-11 01:28N 59°53' E 010°45'0 0.0
2017-Dec-11 00:58N 59°53' E 010°45'0 0.0
2017-Dec-11 00:28N 59°53' E 010°45'0 0.0
2017-Dec-10 23:58N 59°53' E 010°45'0 0.0
2017-Dec-10 23:28N 59°53' E 010°45'0 0.0
2017-Dec-10 23:00N 59°53' E 010°45'3 5.2
2017-Dec-10 22:31N 59°52' E 010°40'611.8
2017-Dec-10 22:00N 59°47' E 010°34'612.6
2017-Dec-10 21:30N 59°41' E 010°36'612.9
2017-Dec-10 21:01N 59°35' E 010°38'713.1
2017-Dec-10 20:31N 59°28' E 010°34'713.1
2017-Dec-10 20:01N 59°22' E 010°35'713.3
2017-Dec-10 19:31N 59°15' E 010°37'713.3
2017-Dec-10 19:01N 59°09' E 010°39'612.3
2017-Dec-10 18:31N 59°03' E 010°34'713.1
2017-Dec-10 18:01N 58°57' E 010°32'713.1
2017-Dec-10 17:30N 58°51' E 010°25'714.0
2017-Dec-10 17:00N 58°45' E 010°18'33412.9
2017-Dec-09 14:59N 53°60' E 005°04'8 9.9
2017-Dec-09 14:11N 53°52' E 004°59'2 9.9
2017-Dec-09 13:56N 53°50' E 004°58'410.1
2017-Dec-09 13:30N 53°46' E 004°55'510.1
2017-Dec-09 13:00N 53°41' E 004°52'510.3
2017-Dec-09 12:29N 53°36' E 004°49'510.5
2017-Dec-09 12:00N 53°31' E 004°46'510.2
2017-Dec-09 11:29N 53°26' E 004°43'510.3
2017-Dec-09 11:00N 53°22' E 004°40'510.5
2017-Dec-09 10:30N 53°17' E 004°36'510.8
2017-Dec-09 10:00N 53°12' E 004°32'611.0
2017-Dec-09 09:29N 53°07' E 004°28'611.6
2017-Dec-09 09:00N 53°02' E 004°23'611.9
2017-Dec-09 08:30N 52°57' E 004°19'611.8
2017-Dec-09 08:00N 52°52' E 004°15'612.0
2017-Dec-09 07:30N 52°46' E 004°10'611.7
2017-Dec-09 07:00N 52°41' E 004°05'611.9
2017-Dec-09 06:30N 52°36' E 003°60'611.5
2017-Dec-09 06:00N 52°31' E 003°55'510.1
2017-Dec-09 05:30N 52°26' E 003°54'5 9.7
2017-Dec-09 05:00N 52°22' E 003°52'4 8.3
2017-Dec-09 04:30N 52°17' E 003°53'4 8.9
2017-Dec-09 04:00N 52°13' E 003°54'5 9.2
2017-Dec-09 03:30N 52°09' E 003°55'4 8.9
2017-Dec-09 03:00N 52°04' E 003°57'4 8.5
2017-Dec-09 02:30N 52°01' E 004°01'5 9.8
2017-Dec-09 02:00N 51°58' E 004°08'611.3
2017-Dec-09 01:30N 51°55' E 004°15'611.3
2017-Dec-09 01:00N 51°51' E 004°22'612.0
2017-Dec-09 00:30N 51°50' E 004°31'5 9.7
2017-Dec-09 00:00N 51°47' E 004°38'510.0
2017-Dec-08 23:30N 51°42' E 004°37'2 3.2
2017-Dec-08 23:00N 51°41' E 004°36'0 0.0
2017-Dec-08 22:30N 51°41' E 004°36'0 0.0
2017-Dec-08 22:00N 51°41' E 004°36'0 0.0
2017-Dec-08 21:30N 51°41' E 004°36'0 0.0
2017-Dec-08 21:00N 51°41' E 004°36'0 0.0
2017-Dec-08 20:30N 51°41' E 004°36'0 0.0
2017-Dec-08 20:00N 51°41' E 004°36'0 0.0
2017-Dec-08 19:30N 51°41' E 004°36'0 0.0
2017-Dec-08 19:00N 51°41' E 004°36'0 0.0
2017-Dec-08 18:30N 51°41' E 004°36'0 0.0
2017-Dec-08 17:59N 51°41' E 004°36'0 0.0
2017-Dec-08 17:30N 51°41' E 004°36'0 0.0
2017-Dec-08 17:00N 51°41' E 004°36'0 0.0
2017-Dec-08 16:30N 51°41' E 004°36'0 0.0
2017-Dec-08 16:00N 51°41' E 004°36'0 0.0
2017-Dec-08 15:30N 51°41' E 004°36'0 0.0
2017-Dec-08 15:00N 51°41' E 004°36'0 0.0
2017-Dec-08 14:29N 51°41' E 004°36'0 0.0
2017-Dec-08 14:00N 51°41' E 004°36'0 0.0
2017-Dec-08 13:30N 51°41' E 004°36'0 0.0
2017-Dec-08 13:00N 51°41' E 004°36'0 0.0
2017-Dec-08 12:30N 51°41' E 004°36'0 0.0
2017-Dec-08 12:00N 51°41' E 004°36'0 0.0
2017-Dec-08 11:30N 51°41' E 004°36'0 0.0
2017-Dec-08 11:00N 51°41' E 004°36'0 0.0
2017-Dec-08 10:30N 51°41' E 004°36'0 0.0
2017-Dec-08 10:00N 51°41' E 004°36'0 0.0
2017-Dec-08 09:30N 51°41' E 004°36'0 0.0
2017-Dec-08 09:00N 51°41' E 004°36'0 0.0
2017-Dec-08 08:30N 51°41' E 004°36'0 0.0
2017-Dec-08 08:00N 51°41' E 004°36'0 0.0
2017-Dec-08 07:30N 51°41' E 004°36'0 0.0
2017-Dec-08 07:00N 51°41' E 004°36'0 0.0
2017-Dec-08 06:30N 51°41' E 004°36'0 0.0
2017-Dec-08 06:00N 51°41' E 004°36'0 0.0
2017-Dec-08 05:30N 51°41' E 004°36'0 0.0
2017-Dec-08 05:00N 51°41' E 004°36'0 0.0
2017-Dec-08 04:30N 51°41' E 004°36'0 0.0
2017-Dec-08 04:00N 51°41' E 004°36'0 0.0
2017-Dec-08 03:30N 51°41' E 004°36'0 0.0
2017-Dec-08 03:00N 51°41' E 004°36'0 0.0
2017-Dec-08 02:30N 51°41' E 004°36'0 0.0
2017-Dec-08 02:00N 51°41' E 004°36'0 0.0
2017-Dec-08 01:30N 51°41' E 004°36'0 0.8
2017-Dec-08 01:00N 51°41' E 004°36'4 7.7
2017-Dec-08 00:30N 51°45' E 004°38'5 9.2
2017-Dec-08 00:01N 51°49' E 004°34'4 7.7
2017-Dec-07 23:31N 51°50' E 004°28'510.4
2017-Dec-07 23:01N 51°52' E 004°20'510.0
2017-Dec-07 22:31N 51°55' E 004°14'612.2
2017-Dec-07 22:00N 51°59' E 004°06'611.9
2017-Dec-07 21:30N 52°00' E 003°57'714.1
2017-Dec-07 21:00N 52°05' E 003°48'714.2
2017-Dec-07 20:30N 52°12' E 003°47'1913.2
2017-Dec-07 19:05N 52°31' E 003°51'  
Track history (hours):
 
Tides and Currents Weather Stations Pressure Air Temp Water Temp Dewpoint Dewpoint Depression Visibility Wind Speed Wind Dir Waves Ship Positions

Vanquish

Last reported at 2017-Dec-16 12:45 UTC. Time now 2017-Dec-16 20:51 UTC.
Position N 53°37' E 004°51'.

MMSI: 246138952.

Date/timePositionNaut miles runAvg speedWind from/ knotsBaromVisibWave heightAir tempDewpointWater temp
2017-Dec-16 12:45N 53°37' E 004°51'310.8
2017-Dec-16 12:28N 53°34' E 004°49'510.8
2017-Dec-16 12:00N 53°30' E 004°46'610.9
2017-Dec-16 11:25N 53°24' E 004°41'1410.6
2017-Dec-16 10:06N 53°11' E 004°31'110.3
2017-Dec-16 10:00N 53°10' E 004°31'1310.5
2017-Dec-16 08:45N 52°59' E 004°20'310.4
2017-Dec-16 08:28N 52°56' E 004°18'510.6
2017-Dec-16 08:00N 52°51' E 004°15'510.7
2017-Dec-16 07:31N 52°47' E 004°11'510.9
2017-Dec-16 07:01N 52°42' E 004°06'611.1
2017-Dec-16 06:30N 52°38' E 004°01'611.4
2017-Dec-16 06:00N 52°33' E 003°56'611.3
2017-Dec-16 05:30N 52°27' E 003°54'611.6
2017-Dec-16 05:00N 52°22' E 003°52'611.9
2017-Dec-16 04:30N 52°16' E 003°52'612.6
2017-Dec-16 04:00N 52°09' E 003°54'612.8
2017-Dec-16 03:30N 52°03' E 003°55'510.0
2017-Dec-16 03:01N 52°00' E 004°01'713.1
2017-Dec-16 02:30N 51°57' E 004°10'612.6
2017-Dec-16 02:00N 51°54' E 004°19'3 7.0
2017-Dec-16 01:30N 51°51' E 004°22'5 9.4
2017-Dec-16 01:00N 51°50' E 004°30'4 8.2
2017-Dec-16 00:31N 51°48' E 004°36'4 7.8
2017-Dec-16 00:00N 51°45' E 004°38'4 7.5
2017-Dec-15 23:30N 51°41' E 004°36'1 1.1
2017-Dec-15 23:00N 51°41' E 004°36'0 0.0
2017-Dec-15 22:22N 51°41' E 004°36'0 0.0
2017-Dec-15 21:58N 51°41' E 004°36'0 0.0
2017-Dec-15 21:28N 51°41' E 004°36'0 0.0
2017-Dec-15 20:58N 51°41' E 004°36'0 0.0
2017-Dec-15 20:25N 51°41' E 004°36'0 0.0
2017-Dec-15 19:58N 51°41' E 004°36'0 0.0
2017-Dec-15 19:28N 51°41' E 004°36'0 0.0
2017-Dec-15 18:52N 51°41' E 004°36'0 0.0
2017-Dec-15 18:16N 51°41' E 004°36'0 0.0
2017-Dec-15 17:58N 51°41' E 004°36'0 0.0
2017-Dec-15 17:28N 51°41' E 004°36'0 0.0
2017-Dec-15 16:55N 51°41' E 004°36'0 0.0
2017-Dec-15 16:28N 51°41' E 004°36'0 0.0
2017-Dec-15 15:58N 51°41' E 004°36'0 0.0
2017-Dec-15 15:25N 51°41' E 004°36'0 0.0
2017-Dec-15 14:55N 51°41' E 004°36'0 0.0
2017-Dec-15 14:16N 51°41' E 004°36'0 0.0
2017-Dec-15 13:58N 51°41' E 004°36'0 0.0
2017-Dec-15 13:25N 51°41' E 004°36'0 0.0
2017-Dec-15 12:55N 51°41' E 004°36'0 0.0
2017-Dec-15 12:22N 51°41' E 004°36'0 0.0
2017-Dec-15 11:55N 51°41' E 004°36'0 0.0
2017-Dec-15 11:25N 51°41' E 004°36'0 0.0
2017-Dec-15 10:43N 51°41' E 004°36'0 0.0
2017-Dec-15 10:28N 51°41' E 004°36'0 0.1
2017-Dec-15 09:46N 51°41' E 004°36'0 0.1
2017-Dec-15 09:28N 51°41' E 004°36'0 0.0
2017-Dec-15 08:58N 51°41' E 004°36'0 0.0
2017-Dec-15 08:28N 51°41' E 004°36'0 0.0
2017-Dec-15 07:58N 51°41' E 004°36'0 0.0
2017-Dec-15 07:28N 51°41' E 004°36'0 0.0
2017-Dec-15 06:58N 51°41' E 004°36'0 0.0
2017-Dec-15 06:28N 51°41' E 004°36'0 0.0
2017-Dec-15 05:55N 51°41' E 004°36'0 0.0
2017-Dec-15 05:28N 51°41' E 004°36'0 0.0
2017-Dec-15 04:58N 51°41' E 004°36'0 0.0
2017-Dec-15 04:28N 51°41' E 004°36'0 0.0
2017-Dec-15 03:58N 51°41' E 004°36'0 0.0
2017-Dec-15 02:28N 51°41' E 004°36'0 0.0
2017-Dec-15 00:58N 51°41' E 004°36'0 0.0
2017-Dec-15 00:28N 51°41' E 004°36'0 0.0
2017-Dec-14 18:28N 51°41' E 004°36'0 0.0
2017-Dec-14 17:58N 51°41' E 004°36'0 0.0
2017-Dec-14 17:25N 51°41' E 004°36'0 0.0
2017-Dec-14 16:58N 51°41' E 004°36'0 0.0
2017-Dec-14 16:28N 51°41' E 004°36'0 0.0
2017-Dec-14 15:58N 51°41' E 004°36'0 0.2
2017-Dec-14 14:58N 51°41' E 004°36'0 0.0
2017-Dec-14 14:28N 51°41' E 004°36'0 0.0
2017-Dec-14 13:52N 51°41' E 004°36'0 0.0
2017-Dec-14 13:28N 51°41' E 004°36'0 0.0
2017-Dec-14 12:58N 51°41' E 004°36'0 0.0
2017-Dec-14 12:28N 51°41' E 004°36'0 0.0
2017-Dec-14 11:58N 51°41' E 004°36'0 0.0
2017-Dec-14 11:28N 51°41' E 004°36'0 0.0
2017-Dec-14 10:58N 51°41' E 004°36'0 0.0
2017-Dec-14 10:28N 51°41' E 004°36'0 0.0
2017-Dec-14 09:58N 51°41' E 004°36'0 0.0
2017-Dec-14 09:28N 51°41' E 004°36'0 0.0
2017-Dec-14 08:58N 51°41' E 004°36'0 0.0
2017-Dec-14 08:28N 51°41' E 004°36'0 0.0
2017-Dec-14 07:58N 51°41' E 004°36'0 0.0
2017-Dec-14 07:28N 51°41' E 004°36'0 0.0
2017-Dec-14 06:58N 51°41' E 004°36'0 0.0
2017-Dec-14 06:28N 51°41' E 004°36'0 0.0
2017-Dec-14 05:58N 51°41' E 004°36'0 0.0
2017-Dec-14 05:28N 51°41' E 004°36'0 0.0
2017-Dec-14 04:58N 51°41' E 004°36'0 0.0
2017-Dec-14 04:28N 51°41' E 004°36'0 0.0
2017-Dec-14 04:00N 51°41' E 004°36'0 0.3
2017-Dec-14 03:30N 51°41' E 004°36'3 6.5
2017-Dec-14 03:00N 51°44' E 004°38'5 9.1
2017-Dec-14 02:30N 51°48' E 004°36'5 9.2
2017-Dec-14 02:00N 51°50' E 004°29'5 9.6
2017-Dec-14 01:30N 51°51' E 004°21'3 6.6
2017-Dec-14 01:00N 51°54' E 004°18'3 5.2
2017-Dec-14 00:30N 51°55' E 004°14'4 8.5
2017-Dec-14 00:00N 51°58' E 004°09'4 7.5
2017-Dec-13 23:30N 51°59' E 004°03'3 6.7
2017-Dec-13 23:00N 51°60' E 003°58'3 6.4
2017-Dec-13 22:30N 51°59' E 003°53'2 3.8
2017-Dec-13 22:00N 52°01' E 003°51'3 5.7
2017-Dec-13 21:30N 52°02' E 003°47'3 5.7
2017-Dec-13 21:00N 52°05' E 003°47'3 5.1
2017-Dec-13 20:30N 52°08' E 003°47'2 4.3
2017-Dec-13 20:00N 52°10' E 003°47'2 4.7
2017-Dec-13 19:29N 52°12' E 003°47'2 5.0
2017-Dec-13 19:00N 52°15' E 003°47'3 4.9
2017-Dec-13 18:25N 52°18' E 003°47'1710.0
2017-Dec-13 16:42N 52°34' E 003°51'106 7.7
2017-Dec-13 02:51N 54°11' E 005°07'3 7.9
2017-Dec-13 02:30N 54°13' E 005°09'4 8.1
2017-Dec-13 02:00N 54°17' E 005°12'4 8.2
2017-Dec-13 01:30N 54°21' E 005°16'30312.3
2017-Dec-12 00:56N 58°37' E 010°07'613.6
2017-Dec-12 00:30N 58°42' E 010°13'713.6
2017-Dec-12 00:01N 58°48' E 010°21'713.4
2017-Dec-11 23:31N 58°53' E 010°28'713.6
2017-Dec-11 23:00N 58°59' E 010°35'714.1
2017-Dec-11 22:30N 59°04' E 010°45'612.7
2017-Dec-11 22:01N 59°09' E 010°39'815.9
2017-Dec-11 21:30N 59°17' E 010°36'714.8
2017-Dec-11 21:00N 59°25' E 010°38'1 2.5
2017-Dec-11 20:30N 59°26' E 010°39'0 0.0
2017-Dec-11 19:58N 59°26' E 010°39'0 0.0
2017-Dec-11 19:28N 59°26' E 010°39'0 0.0
2017-Dec-11 18:58N 59°26' E 010°39'0 0.0
2017-Dec-11 18:28N 59°26' E 010°39'0 0.0
2017-Dec-11 17:58N 59°26' E 010°39'0 0.0
2017-Dec-11 17:28N 59°26' E 010°39'0 0.0
2017-Dec-11 16:58N 59°26' E 010°39'0 0.0
2017-Dec-11 16:28N 59°26' E 010°39'0 0.0
2017-Dec-11 15:58N 59°26' E 010°39'0 0.0
2017-Dec-11 15:28N 59°26' E 010°39'0 0.0
2017-Dec-11 14:45N 59°26' E 010°39'0 0.0
2017-Dec-11 14:30N 59°26' E 010°39'0 0.0
2017-Dec-11 14:00N 59°26' E 010°39'1 1.4
2017-Dec-11 13:30N 59°25' E 010°39'4 8.3
2017-Dec-11 13:00N 59°28' E 010°33'815.0
2017-Dec-11 12:30N 59°35' E 010°38'714.1
2017-Dec-11 12:00N 59°42' E 010°35'714.5
2017-Dec-11 11:30N 59°50' E 010°35'611.9
2017-Dec-11 11:00N 59°53' E 010°45'0 0.4
2017-Dec-11 10:28N 59°53' E 010°45'0 0.0
2017-Dec-11 09:58N 59°53' E 010°45'0 0.0
2017-Dec-11 09:28N 59°53' E 010°45'0 0.0
2017-Dec-11 08:58N 59°53' E 010°45'0 0.0
2017-Dec-11 08:28N 59°53' E 010°45'0 0.0
2017-Dec-11 07:58N 59°53' E 010°45'0 0.0
2017-Dec-11 07:28N 59°53' E 010°45'0 0.0
2017-Dec-11 06:58N 59°53' E 010°45'0 0.0
2017-Dec-11 06:28N 59°53' E 010°45'0 0.0
2017-Dec-11 05:58N 59°53' E 010°45'0 0.0
2017-Dec-11 05:28N 59°53' E 010°45'0 0.0
2017-Dec-11 04:58N 59°53' E 010°45'0 0.0
2017-Dec-11 04:28N 59°53' E 010°45'0 0.0
2017-Dec-11 03:58N 59°53' E 010°45'0 0.0
2017-Dec-11 03:28N 59°53' E 010°45'0 0.0
2017-Dec-11 02:58N 59°53' E 010°45'0 0.0
2017-Dec-11 02:28N 59°53' E 010°45'0 0.0
2017-Dec-11 01:58N 59°53' E 010°45'0 0.0
2017-Dec-11 01:28N 59°53' E 010°45'0 0.0
2017-Dec-11 00:58N 59°53' E 010°45'0 0.0
2017-Dec-11 00:28N 59°53' E 010°45'0 0.0
2017-Dec-10 23:58N 59°53' E 010°45'0 0.0
2017-Dec-10 23:28N 59°53' E 010°45'0 0.0
2017-Dec-10 23:00N 59°53' E 010°45'3 5.2
2017-Dec-10 22:31N 59°52' E 010°40'611.8
2017-Dec-10 22:00N 59°47' E 010°34'612.6
2017-Dec-10 21:30N 59°41' E 010°36'612.9
2017-Dec-10 21:01N 59°35' E 010°38'713.1
2017-Dec-10 20:31N 59°28' E 010°34'713.1
2017-Dec-10 20:01N 59°22' E 010°35'713.3
2017-Dec-10 19:31N 59°15' E 010°37'713.3
2017-Dec-10 19:01N 59°09' E 010°39'612.3
2017-Dec-10 18:31N 59°03' E 010°34'713.1
2017-Dec-10 18:01N 58°57' E 010°32'713.1
2017-Dec-10 17:30N 58°51' E 010°25'714.0
2017-Dec-10 17:00N 58°45' E 010°18'33412.9
2017-Dec-09 14:59N 53°60' E 005°04'8 9.9
2017-Dec-09 14:11N 53°52' E 004°59'2 9.9
2017-Dec-09 13:56N 53°50' E 004°58'410.1
2017-Dec-09 13:30N 53°46' E 004°55'510.1
2017-Dec-09 13:00N 53°41' E 004°52'510.3
2017-Dec-09 12:29N 53°36' E 004°49'510.5
2017-Dec-09 12:00N 53°31' E 004°46'510.2
2017-Dec-09 11:29N 53°26' E 004°43'510.3
2017-Dec-09 11:00N 53°22' E 004°40'510.5
2017-Dec-09 10:30N 53°17' E 004°36'510.8
2017-Dec-09 10:00N 53°12' E 004°32'611.0
2017-Dec-09 09:29N 53°07' E 004°28'611.6
2017-Dec-09 09:00N 53°02' E 004°23'611.9
2017-Dec-09 08:30N 52°57' E 004°19'611.8
2017-Dec-09 08:00N 52°52' E 004°15'612.0
2017-Dec-09 07:30N 52°46' E 004°10'611.7
2017-Dec-09 07:00N 52°41' E 004°05'611.9
2017-Dec-09 06:30N 52°36' E 003°60'611.5
2017-Dec-09 06:00N 52°31' E 003°55'510.1
2017-Dec-09 05:30N 52°26' E 003°54'5 9.7
2017-Dec-09 05:00N 52°22' E 003°52'4 8.3
2017-Dec-09 04:30N 52°17' E 003°53'4 8.9
2017-Dec-09 04:00N 52°13' E 003°54'5 9.2
2017-Dec-09 03:30N 52°09' E 003°55'4 8.9
2017-Dec-09 03:00N 52°04' E 003°57'4 8.5
2017-Dec-09 02:30N 52°01' E 004°01'5 9.8
2017-Dec-09 02:00N 51°58' E 004°08'611.3
2017-Dec-09 01:30N 51°55' E 004°15'611.3
2017-Dec-09 01:00N 51°51' E 004°22'612.0
2017-Dec-09 00:30N 51°50' E 004°31'5 9.7
2017-Dec-09 00:00N 51°47' E 004°38'510.0
2017-Dec-08 23:30N 51°42' E 004°37'2 3.2
2017-Dec-08 23:00N 51°41' E 004°36'0 0.0
2017-Dec-08 22:30N 51°41' E 004°36'0 0.0
2017-Dec-08 22:00N 51°41' E 004°36'0 0.0
2017-Dec-08 21:30N 51°41' E 004°36'0 0.0
2017-Dec-08 21:00N 51°41' E 004°36'0 0.0
2017-Dec-08 20:30N 51°41' E 004°36'0 0.0
2017-Dec-08 20:00N 51°41' E 004°36'0 0.0
2017-Dec-08 19:30N 51°41' E 004°36'0 0.0
2017-Dec-08 19:00N 51°41' E 004°36'0 0.0
2017-Dec-08 18:30N 51°41' E 004°36'0 0.0
2017-Dec-08 17:59N 51°41' E 004°36'0 0.0
2017-Dec-08 17:30N 51°41' E 004°36'0 0.0
2017-Dec-08 17:00N 51°41' E 004°36'0 0.0
2017-Dec-08 16:30N 51°41' E 004°36'0 0.0
2017-Dec-08 16:00N 51°41' E 004°36'0 0.0
2017-Dec-08 15:30N 51°41' E 004°36'0 0.0
2017-Dec-08 15:00N 51°41' E 004°36'0 0.0
2017-Dec-08 14:29N 51°41' E 004°36'0 0.0
2017-Dec-08 14:00N 51°41' E 004°36'0 0.0
2017-Dec-08 13:30N 51°41' E 004°36'0 0.0
2017-Dec-08 13:00N 51°41' E 004°36'0 0.0
2017-Dec-08 12:30N 51°41' E 004°36'0 0.0
2017-Dec-08 12:00N 51°41' E 004°36'0 0.0
2017-Dec-08 11:30N 51°41' E 004°36'0 0.0
2017-Dec-08 11:00N 51°41' E 004°36'0 0.0
2017-Dec-08 10:30N 51°41' E 004°36'0 0.0
2017-Dec-08 10:00N 51°41' E 004°36'0 0.0
2017-Dec-08 09:30N 51°41' E 004°36'0 0.0
2017-Dec-08 09:00N 51°41' E 004°36'0 0.0
2017-Dec-08 08:30N 51°41' E 004°36'0 0.0
2017-Dec-08 08:00N 51°41' E 004°36'0 0.0
2017-Dec-08 07:30N 51°41' E 004°36'0 0.0
2017-Dec-08 07:00N 51°41' E 004°36'0 0.0
2017-Dec-08 06:30N 51°41' E 004°36'0 0.0
2017-Dec-08 06:00N 51°41' E 004°36'0 0.0
2017-Dec-08 05:30N 51°41' E 004°36'0 0.0
2017-Dec-08 05:00N 51°41' E 004°36'0 0.0
2017-Dec-08 04:30N 51°41' E 004°36'0 0.0
2017-Dec-08 04:00N 51°41' E 004°36'0 0.0
2017-Dec-08 03:30N 51°41' E 004°36'0 0.0
2017-Dec-08 03:00N 51°41' E 004°36'0 0.0
2017-Dec-08 02:30N 51°41' E 004°36'0 0.0
2017-Dec-08 02:00N 51°41' E 004°36'0 0.0
2017-Dec-08 01:30N 51°41' E 004°36'0 0.8
2017-Dec-08 01:00N 51°41' E 004°36'4 7.7
2017-Dec-08 00:30N 51°45' E 004°38'5 9.2
2017-Dec-08 00:01N 51°49' E 004°34'4 7.7
2017-Dec-07 23:31N 51°50' E 004°28'510.4
2017-Dec-07 23:01N 51°52' E 004°20'510.0
2017-Dec-07 22:31N 51°55' E 004°14'612.2
2017-Dec-07 22:00N 51°59' E 004°06'611.9
2017-Dec-07 21:30N 52°00' E 003°57'714.1
2017-Dec-07 21:00N 52°05' E 003°48'714.2
2017-Dec-07 20:30N 52°12' E 003°47'1913.2
2017-Dec-07 19:05N 52°31' E 003°51'  

Dump ship's entire track history